sensor_id;sensor_type;location;lat;lon;timestamp;P1;durP1;ratioP1;P2;durP2;ratioP2
359;SDS011;168;48.872;9.226;2023-02-28T00:01:26;3.73;;;3.30;;
359;SDS011;168;48.872;9.226;2023-02-28T00:03:54;3.70;;;3.40;;
359;SDS011;168;48.872;9.226;2023-02-28T00:06:21;4.87;;;4.10;;
359;SDS011;168;48.872;9.226;2023-02-28T00:08:51;5.17;;;3.63;;
359;SDS011;168;48.872;9.226;2023-02-28T00:11:18;5.17;;;4.67;;
359;SDS011;168;48.872;9.226;2023-02-28T00:13:46;4.50;;;3.80;;
359;SDS011;168;48.872;9.226;2023-02-28T00:16:15;5.50;;;4.10;;
359;SDS011;168;48.872;9.226;2023-02-28T00:18:44;4.87;;;4.47;;
359;SDS011;168;48.872;9.226;2023-02-28T00:21:13;4.80;;;4.33;;
359;SDS011;168;48.872;9.226;2023-02-28T00:23:40;4.97;;;3.90;;
359;SDS011;168;48.872;9.226;2023-02-28T00:26:09;5.40;;;4.67;;
359;SDS011;168;48.872;9.226;2023-02-28T00:28:36;3.80;;;3.50;;
359;SDS011;168;48.872;9.226;2023-02-28T00:31:04;5.13;;;4.60;;
359;SDS011;168;48.872;9.226;2023-02-28T00:33:32;4.50;;;4.10;;
359;SDS011;168;48.872;9.226;2023-02-28T00:36:03;4.03;;;3.70;;
359;SDS011;168;48.872;9.226;2023-02-28T00:38:32;4.50;;;4.10;;
359;SDS011;168;48.872;9.226;2023-02-28T00:40:59;4.13;;;3.80;;
359;SDS011;168;48.872;9.226;2023-02-28T00:43:32;5.30;;;4.80;;
359;SDS011;168;48.872;9.226;2023-02-28T00:46:00;6.00;;;5.13;;
359;SDS011;168;48.872;9.226;2023-02-28T00:48:28;5.30;;;4.80;;
359;SDS011;168;48.872;9.226;2023-02-28T00:50:55;4.87;;;4.37;;
359;SDS011;168;48.872;9.226;2023-02-28T00:53:22;5.17;;;4.60;;
359;SDS011;168;48.872;9.226;2023-02-28T00:55:50;6.17;;;4.33;;
359;SDS011;168;48.872;9.226;2023-02-28T00:58:17;5.50;;;4.93;;
359;SDS011;168;48.872;9.226;2023-02-28T01:00:46;4.90;;;4.50;;
359;SDS011;168;48.872;9.226;2023-02-28T01:05:42;5.90;;;5.30;;
359;SDS011;168;48.872;9.226;2023-02-28T01:08:10;5.57;;;4.77;;
359;SDS011;168;48.872;9.226;2023-02-28T01:10:37;5.83;;;5.40;;
359;SDS011;168;48.872;9.226;2023-02-28T01:13:05;4.60;;;4.20;;
359;SDS011;168;48.872;9.226;2023-02-28T01:15:32;5.43;;;4.97;;
359;SDS011;168;48.872;9.226;2023-02-28T01:18:01;5.40;;;4.90;;
359;SDS011;168;48.872;9.226;2023-02-28T01:20:29;6.87;;;5.70;;
359;SDS011;168;48.872;9.226;2023-02-28T01:22:56;6.07;;;5.47;;
359;SDS011;168;48.872;9.226;2023-02-28T01:25:23;5.53;;;4.80;;
359;SDS011;168;48.872;9.226;2023-02-28T01:27:51;5.43;;;4.80;;
359;SDS011;168;48.872;9.226;2023-02-28T01:30:18;5.80;;;5.30;;
359;SDS011;168;48.872;9.226;2023-02-28T01:32:46;5.90;;;5.40;;
359;SDS011;168;48.872;9.226;2023-02-28T01:35:15;5.33;;;4.90;;
359;SDS011;168;48.872;9.226;2023-02-28T01:37:42;5.63;;;5.13;;
359;SDS011;168;48.872;9.226;2023-02-28T01:40:10;6.10;;;5.50;;
359;SDS011;168;48.872;9.226;2023-02-28T01:42:38;6.23;;;5.60;;
359;SDS011;168;48.872;9.226;2023-02-28T01:45:16;7.10;;;5.30;;
359;SDS011;168;48.872;9.226;2023-02-28T01:47:48;5.47;;;4.90;;
359;SDS011;168;48.872;9.226;2023-02-28T01:50:20;6.00;;;5.50;;
359;SDS011;168;48.872;9.226;2023-02-28T01:52:50;7.20;;;5.67;;
359;SDS011;168;48.872;9.226;2023-02-28T01:55:18;5.77;;;5.30;;
359;SDS011;168;48.872;9.226;2023-02-28T01:57:48;7.63;;;5.83;;
359;SDS011;168;48.872;9.226;2023-02-28T02:00:20;6.40;;;5.67;;
359;SDS011;168;48.872;9.226;2023-02-28T02:02:51;5.90;;;5.40;;
359;SDS011;168;48.872;9.226;2023-02-28T02:05:22;6.10;;;5.50;;
359;SDS011;168;48.872;9.226;2023-02-28T02:07:51;6.77;;;5.77;;
359;SDS011;168;48.872;9.226;2023-02-28T02:10:23;7.90;;;7.20;;
359;SDS011;168;48.872;9.226;2023-02-28T02:15:53;5.70;;;5.20;;
359;SDS011;168;48.872;9.226;2023-02-28T02:18:30;6.53;;;5.93;;
359;SDS011;168;48.872;9.226;2023-02-28T02:21:18;6.40;;;5.70;;
359;SDS011;168;48.872;9.226;2023-02-28T02:24:29;5.37;;;4.93;;
359;SDS011;168;48.872;9.226;2023-02-28T02:33:22;5.00;;;4.60;;
359;SDS011;168;48.872;9.226;2023-02-28T02:36:14;5.80;;;5.20;;
359;SDS011;168;48.872;9.226;2023-02-28T02:38:48;6.10;;;5.60;;
359;SDS011;168;48.872;9.226;2023-02-28T02:41:22;6.70;;;5.60;;
359;SDS011;168;48.872;9.226;2023-02-28T02:43:54;5.77;;;5.13;;
359;SDS011;168;48.872;9.226;2023-02-28T02:46:29;6.27;;;5.67;;
359;SDS011;168;48.872;9.226;2023-02-28T02:49:00;7.03;;;6.53;;
359;SDS011;168;48.872;9.226;2023-02-28T02:51:31;6.37;;;5.87;;
359;SDS011;168;48.872;9.226;2023-02-28T02:54:02;6.10;;;5.50;;
359;SDS011;168;48.872;9.226;2023-02-28T02:56:33;6.97;;;5.60;;
359;SDS011;168;48.872;9.226;2023-02-28T02:59:03;7.07;;;6.10;;
359;SDS011;168;48.872;9.226;2023-02-28T03:01:34;5.80;;;5.30;;
359;SDS011;168;48.872;9.226;2023-02-28T03:04:05;6.30;;;5.80;;
359;SDS011;168;48.872;9.226;2023-02-28T03:06:38;5.87;;;5.37;;
359;SDS011;168;48.872;9.226;2023-02-28T03:09:06;7.70;;;6.50;;
359;SDS011;168;48.872;9.226;2023-02-28T03:11:34;7.40;;;6.43;;
359;SDS011;168;48.872;9.226;2023-02-28T03:14:06;8.87;;;6.13;;
359;SDS011;168;48.872;9.226;2023-02-28T03:16:45;6.33;;;5.83;;
359;SDS011;168;48.872;9.226;2023-02-28T03:19:41;6.60;;;6.00;;
359;SDS011;168;48.872;9.226;2023-02-28T03:22:29;7.53;;;6.33;;
359;SDS011;168;48.872;9.226;2023-02-28T03:25:07;6.10;;;5.53;;
359;SDS011;168;48.872;9.226;2023-02-28T03:27:40;6.53;;;5.93;;
359;SDS011;168;48.872;9.226;2023-02-28T03:30:13;6.37;;;5.77;;
359;SDS011;168;48.872;9.226;2023-02-28T03:32:45;8.57;;;6.70;;
359;SDS011;168;48.872;9.226;2023-02-28T03:35:21;6.97;;;6.27;;
359;SDS011;168;48.872;9.226;2023-02-28T03:37:52;7.20;;;6.47;;
359;SDS011;168;48.872;9.226;2023-02-28T03:40:24;5.80;;;5.20;;
359;SDS011;168;48.872;9.226;2023-02-28T03:42:57;5.67;;;5.10;;
359;SDS011;168;48.872;9.226;2023-02-28T03:45:28;6.53;;;5.93;;
359;SDS011;168;48.872;9.226;2023-02-28T03:47:58;7.97;;;6.07;;
359;SDS011;168;48.872;9.226;2023-02-28T03:50:31;7.77;;;6.93;;
359;SDS011;168;48.872;9.226;2023-02-28T03:53:06;10.33;;;6.20;;
359;SDS011;168;48.872;9.226;2023-02-28T03:55:37;6.70;;;6.10;;
359;SDS011;168;48.872;9.226;2023-02-28T03:58:09;6.60;;;6.00;;
359;SDS011;168;48.872;9.226;2023-02-28T04:00:43;6.67;;;6.07;;
359;SDS011;168;48.872;9.226;2023-02-28T04:03:13;5.87;;;5.40;;
359;SDS011;168;48.872;9.226;2023-02-28T04:05:45;7.17;;;6.40;;
359;SDS011;168;48.872;9.226;2023-02-28T04:08:17;6.23;;;5.63;;
359;SDS011;168;48.872;9.226;2023-02-28T04:10:45;7.27;;;6.60;;
359;SDS011;168;48.872;9.226;2023-02-28T04:13:18;7.00;;;5.87;;
359;SDS011;168;48.872;9.226;2023-02-28T04:15:45;6.30;;;5.70;;
359;SDS011;168;48.872;9.226;2023-02-28T04:18:12;8.57;;;6.40;;
359;SDS011;168;48.872;9.226;2023-02-28T04:20:40;6.23;;;5.73;;
359;SDS011;168;48.872;9.226;2023-02-28T04:23:07;7.10;;;6.40;;
359;SDS011;168;48.872;9.226;2023-02-28T04:25:36;6.67;;;5.90;;
359;SDS011;168;48.872;9.226;2023-02-28T04:28:05;7.50;;;6.07;;
359;SDS011;168;48.872;9.226;2023-02-28T04:30:33;7.43;;;6.43;;
359;SDS011;168;48.872;9.226;2023-02-28T04:33:00;6.57;;;5.90;;
359;SDS011;168;48.872;9.226;2023-02-28T04:35:28;7.53;;;6.83;;
359;SDS011;168;48.872;9.226;2023-02-28T04:37:55;6.37;;;5.83;;
359;SDS011;168;48.872;9.226;2023-02-28T04:40:22;7.87;;;6.63;;
359;SDS011;168;48.872;9.226;2023-02-28T04:42:51;6.80;;;6.07;;
359;SDS011;168;48.872;9.226;2023-02-28T04:45:18;10.50;;;6.97;;
359;SDS011;168;48.872;9.226;2023-02-28T04:47:45;6.77;;;6.17;;
359;SDS011;168;48.872;9.226;2023-02-28T04:50:13;7.17;;;6.47;;
359;SDS011;168;48.872;9.226;2023-02-28T04:52:40;8.77;;;6.53;;
359;SDS011;168;48.872;9.226;2023-02-28T04:55:08;7.13;;;6.03;;
359;SDS011;168;48.872;9.226;2023-02-28T04:57:35;7.17;;;6.07;;
359;SDS011;168;48.872;9.226;2023-02-28T05:00:05;7.60;;;5.90;;
359;SDS011;168;48.872;9.226;2023-02-28T05:02:37;7.17;;;6.47;;
359;SDS011;168;48.872;9.226;2023-02-28T05:05:05;8.97;;;6.93;;
359;SDS011;168;48.872;9.226;2023-02-28T05:07:32;6.67;;;6.07;;
359;SDS011;168;48.872;9.226;2023-02-28T05:10:00;7.80;;;7.07;;
359;SDS011;168;48.872;9.226;2023-02-28T05:12:28;8.20;;;7.40;;
359;SDS011;168;48.872;9.226;2023-02-28T05:14:55;7.23;;;6.53;;
359;SDS011;168;48.872;9.226;2023-02-28T05:17:24;8.10;;;7.30;;
359;SDS011;168;48.872;9.226;2023-02-28T05:19:51;7.37;;;6.67;;
359;SDS011;168;48.872;9.226;2023-02-28T05:22:19;7.70;;;6.80;;
359;SDS011;168;48.872;9.226;2023-02-28T05:24:46;8.70;;;7.00;;
359;SDS011;168;48.872;9.226;2023-02-28T05:27:13;9.40;;;6.93;;
359;SDS011;168;48.872;9.226;2023-02-28T05:29:41;7.93;;;7.13;;
359;SDS011;168;48.872;9.226;2023-02-28T05:32:11;7.80;;;6.90;;
359;SDS011;168;48.872;9.226;2023-02-28T05:34:40;9.70;;;7.33;;
359;SDS011;168;48.872;9.226;2023-02-28T05:37:10;7.33;;;6.67;;
359;SDS011;168;48.872;9.226;2023-02-28T05:39:39;7.70;;;7.00;;
359;SDS011;168;48.872;9.226;2023-02-28T05:42:06;10.00;;;7.70;;
359;SDS011;168;48.872;9.226;2023-02-28T05:44:34;7.60;;;6.30;;
359;SDS011;168;48.872;9.226;2023-02-28T05:47:02;6.83;;;6.23;;
359;SDS011;168;48.872;9.226;2023-02-28T05:49:29;7.20;;;6.50;;
359;SDS011;168;48.872;9.226;2023-02-28T05:51:58;7.20;;;6.57;;
359;SDS011;168;48.872;9.226;2023-02-28T05:54:25;8.50;;;7.60;;
359;SDS011;168;48.872;9.226;2023-02-28T05:56:53;8.30;;;7.50;;
359;SDS011;168;48.872;9.226;2023-02-28T05:59:20;11.13;;;6.93;;
359;SDS011;168;48.872;9.226;2023-02-28T06:01:47;8.73;;;7.57;;
359;SDS011;168;48.872;9.226;2023-02-28T06:04:15;8.20;;;6.70;;
359;SDS011;168;48.872;9.226;2023-02-28T06:06:45;7.80;;;7.00;;
359;SDS011;168;48.872;9.226;2023-02-28T06:09:13;7.90;;;6.70;;
359;SDS011;168;48.872;9.226;2023-02-28T06:11:41;7.80;;;7.03;;
359;SDS011;168;48.872;9.226;2023-02-28T06:14:10;10.33;;;7.87;;
359;SDS011;168;48.872;9.226;2023-02-28T06:16:41;8.73;;;7.60;;
359;SDS011;168;48.872;9.226;2023-02-28T06:19:08;9.87;;;8.13;;
359;SDS011;168;48.872;9.226;2023-02-28T06:21:36;8.60;;;7.70;;
359;SDS011;168;48.872;9.226;2023-02-28T06:24:04;9.23;;;6.77;;
359;SDS011;168;48.872;9.226;2023-02-28T06:26:33;10.50;;;9.10;;
359;SDS011;168;48.872;9.226;2023-02-28T06:29:00;9.00;;;7.30;;
359;SDS011;168;48.872;9.226;2023-02-28T06:31:28;9.47;;;8.03;;
359;SDS011;168;48.872;9.226;2023-02-28T06:33:56;9.13;;;7.47;;
359;SDS011;168;48.872;9.226;2023-02-28T06:36:23;8.40;;;7.60;;
359;SDS011;168;48.872;9.226;2023-02-28T06:38:50;7.57;;;6.87;;
359;SDS011;168;48.872;9.226;2023-02-28T06:41:20;8.87;;;7.30;;
359;SDS011;168;48.872;9.226;2023-02-28T06:43:49;9.17;;;7.37;;
359;SDS011;168;48.872;9.226;2023-02-28T06:46:17;9.87;;;7.70;;
359;SDS011;168;48.872;9.226;2023-02-28T06:48:45;9.57;;;8.50;;
359;SDS011;168;48.872;9.226;2023-02-28T06:51:13;8.63;;;7.73;;
359;SDS011;168;48.872;9.226;2023-02-28T06:53:42;9.47;;;8.33;;
359;SDS011;168;48.872;9.226;2023-02-28T06:56:10;8.00;;;7.20;;
359;SDS011;168;48.872;9.226;2023-02-28T06:58:39;8.20;;;7.40;;
359;SDS011;168;48.872;9.226;2023-02-28T07:01:08;9.63;;;7.70;;
359;SDS011;168;48.872;9.226;2023-02-28T07:03:36;8.77;;;7.87;;
359;SDS011;168;48.872;9.226;2023-02-28T07:06:04;9.90;;;7.70;;
359;SDS011;168;48.872;9.226;2023-02-28T07:08:32;9.50;;;6.93;;
359;SDS011;168;48.872;9.226;2023-02-28T07:11:00;11.07;;;7.63;;
359;SDS011;168;48.872;9.226;2023-02-28T07:13:27;10.00;;;8.07;;
359;SDS011;168;48.872;9.226;2023-02-28T07:15:55;9.37;;;7.90;;
359;SDS011;168;48.872;9.226;2023-02-28T07:18:24;8.27;;;7.40;;
359;SDS011;168;48.872;9.226;2023-02-28T07:20:52;8.60;;;7.80;;
359;SDS011;168;48.872;9.226;2023-02-28T07:23:20;8.73;;;7.73;;
359;SDS011;168;48.872;9.226;2023-02-28T07:25:48;8.33;;;7.53;;
359;SDS011;168;48.872;9.226;2023-02-28T07:28:16;11.17;;;8.10;;
359;SDS011;168;48.872;9.226;2023-02-28T07:30:43;9.13;;;8.13;;
359;SDS011;168;48.872;9.226;2023-02-28T07:33:10;9.03;;;7.77;;
359;SDS011;168;48.872;9.226;2023-02-28T07:35:39;9.43;;;8.43;;
359;SDS011;168;48.872;9.226;2023-02-28T07:38:07;11.03;;;8.07;;
359;SDS011;168;48.872;9.226;2023-02-28T07:40:35;9.90;;;8.30;;
359;SDS011;168;48.872;9.226;2023-02-28T07:43:03;9.20;;;8.23;;
359;SDS011;168;48.872;9.226;2023-02-28T07:45:31;10.80;;;8.10;;
359;SDS011;168;48.872;9.226;2023-02-28T07:48:00;9.03;;;8.23;;
359;SDS011;168;48.872;9.226;2023-02-28T07:50:28;10.50;;;8.70;;
359;SDS011;168;48.872;9.226;2023-02-28T07:52:57;10.60;;;7.43;;
359;SDS011;168;48.872;9.226;2023-02-28T07:55:25;9.13;;;7.80;;
359;SDS011;168;48.872;9.226;2023-02-28T07:57:53;11.50;;;8.03;;
359;SDS011;168;48.872;9.226;2023-02-28T08:00:20;9.13;;;8.33;;
359;SDS011;168;48.872;9.226;2023-02-28T08:02:48;9.20;;;8.20;;
359;SDS011;168;48.872;9.226;2023-02-28T08:05:16;10.70;;;8.63;;
359;SDS011;168;48.872;9.226;2023-02-28T08:07:44;10.83;;;9.73;;
359;SDS011;168;48.872;9.226;2023-02-28T08:10:14;9.43;;;8.60;;
359;SDS011;168;48.872;9.226;2023-02-28T08:12:42;11.30;;;8.90;;
359;SDS011;168;48.872;9.226;2023-02-28T08:15:09;9.73;;;8.63;;
359;SDS011;168;48.872;9.226;2023-02-28T08:17:37;10.43;;;9.27;;
359;SDS011;168;48.872;9.226;2023-02-28T08:20:05;8.37;;;7.40;;
359;SDS011;168;48.872;9.226;2023-02-28T08:22:35;8.90;;;8.10;;
359;SDS011;168;48.872;9.226;2023-02-28T08:25:03;8.93;;;8.03;;
359;SDS011;168;48.872;9.226;2023-02-28T08:27:34;9.70;;;8.77;;
359;SDS011;168;48.872;9.226;2023-02-28T08:30:02;11.80;;;9.43;;
359;SDS011;168;48.872;9.226;2023-02-28T08:32:30;9.70;;;8.57;;
359;SDS011;168;48.872;9.226;2023-02-28T08:34:59;14.77;;;10.10;;
359;SDS011;168;48.872;9.226;2023-02-28T08:37:27;10.67;;;9.57;;
359;SDS011;168;48.872;9.226;2023-02-28T08:39:54;10.03;;;9.10;;
359;SDS011;168;48.872;9.226;2023-02-28T08:42:22;10.90;;;8.93;;
359;SDS011;168;48.872;9.226;2023-02-28T08:44:51;9.87;;;8.87;;
359;SDS011;168;48.872;9.226;2023-02-28T08:47:18;10.73;;;9.30;;
359;SDS011;168;48.872;9.226;2023-02-28T08:49:46;10.40;;;9.17;;
359;SDS011;168;48.872;9.226;2023-02-28T08:52:13;9.57;;;8.60;;
359;SDS011;168;48.872;9.226;2023-02-28T08:54:40;11.17;;;9.07;;
359;SDS011;168;48.872;9.226;2023-02-28T08:57:08;12.07;;;9.63;;
359;SDS011;168;48.872;9.226;2023-02-28T08:59:36;11.60;;;9.87;;
359;SDS011;168;48.872;9.226;2023-02-28T09:02:04;10.23;;;8.87;;
359;SDS011;168;48.872;9.226;2023-02-28T09:04:33;11.03;;;9.40;;
359;SDS011;168;48.872;9.226;2023-02-28T09:07:00;11.13;;;10.03;;
359;SDS011;168;48.872;9.226;2023-02-28T09:09:28;10.00;;;9.00;;
359;SDS011;168;48.872;9.226;2023-02-28T09:11:55;11.73;;;10.57;;
359;SDS011;168;48.872;9.226;2023-02-28T09:14:23;11.23;;;9.07;;
359;SDS011;168;48.872;9.226;2023-02-28T09:16:50;14.00;;;10.20;;
359;SDS011;168;48.872;9.226;2023-02-28T09:19:19;12.60;;;10.00;;
359;SDS011;168;48.872;9.226;2023-02-28T09:21:46;11.10;;;9.33;;
359;SDS011;168;48.872;9.226;2023-02-28T09:24:13;9.73;;;8.83;;
359;SDS011;168;48.872;9.226;2023-02-28T09:26:41;12.00;;;10.03;;
359;SDS011;168;48.872;9.226;2023-02-28T09:29:08;9.97;;;8.97;;
359;SDS011;168;48.872;9.226;2023-02-28T09:31:36;10.70;;;9.60;;
359;SDS011;168;48.872;9.226;2023-02-28T09:34:04;9.53;;;8.63;;
359;SDS011;168;48.872;9.226;2023-02-28T09:36:33;10.13;;;9.13;;
359;SDS011;168;48.872;9.226;2023-02-28T09:39:00;11.20;;;10.20;;
359;SDS011;168;48.872;9.226;2023-02-28T09:41:29;10.50;;;9.47;;
359;SDS011;168;48.872;9.226;2023-02-28T09:44:13;10.53;;;9.53;;
359;SDS011;168;48.872;9.226;2023-02-28T09:46:47;11.50;;;10.50;;
359;SDS011;168;48.872;9.226;2023-02-28T09:49:22;10.80;;;9.47;;
359;SDS011;168;48.872;9.226;2023-02-28T09:51:55;12.73;;;10.37;;
359;SDS011;168;48.872;9.226;2023-02-28T09:54:27;10.80;;;9.80;;
359;SDS011;168;48.872;9.226;2023-02-28T09:56:56;11.07;;;9.97;;
359;SDS011;168;48.872;9.226;2023-02-28T09:59:42;12.00;;;10.03;;
359;SDS011;168;48.872;9.226;2023-02-28T10:02:24;11.87;;;10.67;;
359;SDS011;168;48.872;9.226;2023-02-28T10:05:12;10.30;;;9.30;;
359;SDS011;168;48.872;9.226;2023-02-28T10:07:48;11.10;;;10.03;;
359;SDS011;168;48.872;9.226;2023-02-28T10:10:25;12.80;;;11.03;;
359;SDS011;168;48.872;9.226;2023-02-28T10:12:56;12.40;;;11.03;;
359;SDS011;168;48.872;9.226;2023-02-28T10:15:27;12.23;;;9.97;;
359;SDS011;168;48.872;9.226;2023-02-28T10:17:59;10.30;;;9.37;;
359;SDS011;168;48.872;9.226;2023-02-28T10:20:30;12.77;;;10.40;;
359;SDS011;168;48.872;9.226;2023-02-28T10:23:05;11.17;;;9.97;;
359;SDS011;168;48.872;9.226;2023-02-28T10:25:39;12.57;;;11.27;;
359;SDS011;168;48.872;9.226;2023-02-28T10:28:10;11.30;;;10.30;;
359;SDS011;168;48.872;9.226;2023-02-28T10:30:39;12.13;;;10.93;;
359;SDS011;168;48.872;9.226;2023-02-28T10:33:15;12.87;;;11.37;;
359;SDS011;168;48.872;9.226;2023-02-28T10:35:48;11.07;;;9.97;;
359;SDS011;168;48.872;9.226;2023-02-28T10:38:18;12.17;;;11.00;;
359;SDS011;168;48.872;9.226;2023-02-28T10:40:46;12.53;;;11.23;;
359;SDS011;168;48.872;9.226;2023-02-28T10:43:19;11.97;;;10.77;;
359;SDS011;168;48.872;9.226;2023-02-28T10:45:58;12.17;;;11.07;;
359;SDS011;168;48.872;9.226;2023-02-28T10:48:36;14.33;;;10.33;;
359;SDS011;168;48.872;9.226;2023-02-28T10:51:05;11.60;;;10.40;;
359;SDS011;168;48.872;9.226;2023-02-28T10:53:37;14.17;;;11.43;;
359;SDS011;168;48.872;9.226;2023-02-28T10:56:14;13.17;;;11.87;;
359;SDS011;168;48.872;9.226;2023-02-28T10:58:47;12.63;;;10.37;;
359;SDS011;168;48.872;9.226;2023-02-28T11:01:18;11.67;;;10.40;;
359;SDS011;168;48.872;9.226;2023-02-28T11:03:47;10.67;;;9.73;;
359;SDS011;168;48.872;9.226;2023-02-28T11:06:16;10.60;;;9.60;;
359;SDS011;168;48.872;9.226;2023-02-28T11:08:47;12.83;;;11.73;;
359;SDS011;168;48.872;9.226;2023-02-28T11:11:17;11.43;;;10.40;;
359;SDS011;168;48.872;9.226;2023-02-28T11:13:46;12.10;;;10.90;;
359;SDS011;168;48.872;9.226;2023-02-28T11:16:16;12.37;;;11.13;;
359;SDS011;168;48.872;9.226;2023-02-28T11:18:46;14.03;;;11.50;;
359;SDS011;168;48.872;9.226;2023-02-28T11:21:17;12.20;;;11.00;;
359;SDS011;168;48.872;9.226;2023-02-28T11:23:50;11.40;;;10.40;;
359;SDS011;168;48.872;9.226;2023-02-28T11:29:37;11.43;;;10.17;;
359;SDS011;168;48.872;9.226;2023-02-28T11:32:16;12.67;;;11.37;;
359;SDS011;168;48.872;9.226;2023-02-28T11:35:00;12.33;;;11.17;;
359;SDS011;168;48.872;9.226;2023-02-28T11:37:43;12.30;;;11.10;;
359;SDS011;168;48.872;9.226;2023-02-28T11:40:13;13.50;;;11.27;;
359;SDS011;168;48.872;9.226;2023-02-28T11:42:47;12.57;;;11.37;;
359;SDS011;168;48.872;9.226;2023-02-28T11:45:24;14.00;;;12.60;;
359;SDS011;168;48.872;9.226;2023-02-28T11:48:04;10.20;;;9.10;;
359;SDS011;168;48.872;9.226;2023-02-28T11:50:44;10.80;;;9.80;;
359;SDS011;168;48.872;9.226;2023-02-28T11:53:18;11.53;;;10.50;;
359;SDS011;168;48.872;9.226;2023-02-28T11:55:53;11.03;;;9.93;;
359;SDS011;168;48.872;9.226;2023-02-28T11:58:28;12.20;;;10.97;;
359;SDS011;168;48.872;9.226;2023-02-28T12:01:05;11.73;;;10.53;;
359;SDS011;168;48.872;9.226;2023-02-28T12:03:48;11.37;;;10.30;;
359;SDS011;168;48.872;9.226;2023-02-28T12:06:25;13.80;;;10.90;;
359;SDS011;168;48.872;9.226;2023-02-28T12:09:02;11.13;;;9.93;;
359;SDS011;168;48.872;9.226;2023-02-28T12:11:40;10.40;;;9.33;;
359;SDS011;168;48.872;9.226;2023-02-28T12:14:22;12.03;;;10.90;;
359;SDS011;168;48.872;9.226;2023-02-28T12:17:05;10.67;;;9.70;;
359;SDS011;168;48.872;9.226;2023-02-28T12:19:43;11.80;;;10.60;;
359;SDS011;168;48.872;9.226;2023-02-28T12:22:19;12.03;;;10.90;;
359;SDS011;168;48.872;9.226;2023-02-28T12:25:13;11.83;;;9.97;;
359;SDS011;168;48.872;9.226;2023-02-28T12:28:03;12.67;;;10.50;;
359;SDS011;168;48.872;9.226;2023-02-28T12:30:31;11.43;;;10.33;;
359;SDS011;168;48.872;9.226;2023-02-28T12:33:03;11.50;;;10.30;;
359;SDS011;168;48.872;9.226;2023-02-28T12:35:34;11.10;;;10.00;;
359;SDS011;168;48.872;9.226;2023-02-28T12:38:05;9.60;;;8.73;;
359;SDS011;168;48.872;9.226;2023-02-28T12:40:41;11.83;;;10.83;;
359;SDS011;168;48.872;9.226;2023-02-28T12:43:15;11.37;;;10.37;;
359;SDS011;168;48.872;9.226;2023-02-28T12:45:45;11.97;;;10.70;;
359;SDS011;168;48.872;9.226;2023-02-28T12:48:18;11.27;;;10.27;;
359;SDS011;168;48.872;9.226;2023-02-28T12:50:50;11.53;;;10.40;;
359;SDS011;168;48.872;9.226;2023-02-28T12:53:21;10.67;;;9.57;;
359;SDS011;168;48.872;9.226;2023-02-28T12:55:56;10.73;;;9.73;;
359;SDS011;168;48.872;9.226;2023-02-28T13:01:27;10.47;;;9.47;;
359;SDS011;168;48.872;9.226;2023-02-28T13:04:24;10.83;;;9.93;;
359;SDS011;168;48.872;9.226;2023-02-28T13:10:16;9.90;;;9.00;;
359;SDS011;168;48.872;9.226;2023-02-28T13:12:48;10.10;;;9.10;;
359;SDS011;168;48.872;9.226;2023-02-28T13:15:18;13.53;;;10.50;;
359;SDS011;168;48.872;9.226;2023-02-28T13:17:50;10.03;;;9.10;;
359;SDS011;168;48.872;9.226;2023-02-28T13:20:20;10.60;;;9.60;;
359;SDS011;168;48.872;9.226;2023-02-28T13:22:50;11.50;;;9.90;;
359;SDS011;168;48.872;9.226;2023-02-28T13:31:27;10.87;;;9.77;;
359;SDS011;168;48.872;9.226;2023-02-28T13:34:14;10.47;;;9.43;;
359;SDS011;168;48.872;9.226;2023-02-28T13:36:42;11.17;;;10.07;;
359;SDS011;168;48.872;9.226;2023-02-28T13:42:31;10.83;;;9.70;;
359;SDS011;168;48.872;9.226;2023-02-28T13:45:24;11.30;;;10.20;;
359;SDS011;168;48.872;9.226;2023-02-28T13:47:59;10.87;;;9.83;;
359;SDS011;168;48.872;9.226;2023-02-28T13:50:29;11.20;;;10.10;;
359;SDS011;168;48.872;9.226;2023-02-28T13:53:14;10.43;;;9.43;;
359;SDS011;168;48.872;9.226;2023-02-28T13:56:23;11.63;;;10.47;;
359;SDS011;168;48.872;9.226;2023-02-28T13:59:02;11.30;;;10.30;;
359;SDS011;168;48.872;9.226;2023-02-28T14:01:45;11.10;;;10.10;;
359;SDS011;168;48.872;9.226;2023-02-28T14:07:24;11.70;;;10.50;;
359;SDS011;168;48.872;9.226;2023-02-28T14:09:56;10.90;;;9.90;;
359;SDS011;168;48.872;9.226;2023-02-28T14:18:24;9.70;;;8.80;;
359;SDS011;168;48.872;9.226;2023-02-28T14:20:57;12.03;;;10.83;;
359;SDS011;168;48.872;9.226;2023-02-28T14:23:38;11.07;;;9.80;;
359;SDS011;168;48.872;9.226;2023-02-28T14:26:33;11.20;;;10.13;;
359;SDS011;168;48.872;9.226;2023-02-28T14:29:23;10.23;;;9.33;;
359;SDS011;168;48.872;9.226;2023-02-28T14:32:05;11.30;;;10.13;;
359;SDS011;168;48.872;9.226;2023-02-28T14:34:40;11.10;;;10.00;;
359;SDS011;168;48.872;9.226;2023-02-28T14:37:19;11.27;;;10.17;;
359;SDS011;168;48.872;9.226;2023-02-28T14:39:50;11.53;;;9.60;;
359;SDS011;168;48.872;9.226;2023-02-28T14:42:28;11.63;;;10.50;;
359;SDS011;168;48.872;9.226;2023-02-28T14:44:57;12.53;;;11.27;;
359;SDS011;168;48.872;9.226;2023-02-28T14:47:25;12.17;;;11.03;;
359;SDS011;168;48.872;9.226;2023-02-28T14:49:57;12.53;;;11.23;;
359;SDS011;168;48.872;9.226;2023-02-28T14:52:27;12.00;;;10.83;;
359;SDS011;168;48.872;9.226;2023-02-28T14:54:58;13.33;;;11.60;;
359;SDS011;168;48.872;9.226;2023-02-28T14:57:27;12.00;;;10.90;;
359;SDS011;168;48.872;9.226;2023-02-28T15:00:00;13.97;;;11.40;;
359;SDS011;168;48.872;9.226;2023-02-28T15:02:36;11.90;;;10.53;;
359;SDS011;168;48.872;9.226;2023-02-28T15:05:20;11.13;;;10.10;;
359;SDS011;168;48.872;9.226;2023-02-28T15:08:01;12.23;;;11.10;;
359;SDS011;168;48.872;9.226;2023-02-28T15:10:37;11.90;;;10.70;;
359;SDS011;168;48.872;9.226;2023-02-28T15:13:06;10.80;;;9.70;;
359;SDS011;168;48.872;9.226;2023-02-28T15:15:43;11.50;;;9.90;;
359;SDS011;168;48.872;9.226;2023-02-28T15:18:16;13.03;;;11.63;;
359;SDS011;168;48.872;9.226;2023-02-28T15:20:50;11.47;;;10.37;;
359;SDS011;168;48.872;9.226;2023-02-28T15:23:34;12.80;;;11.40;;
359;SDS011;168;48.872;9.226;2023-02-28T15:26:03;11.10;;;10.10;;
359;SDS011;168;48.872;9.226;2023-02-28T15:28:35;12.83;;;11.50;;
359;SDS011;168;48.872;9.226;2023-02-28T15:31:20;11.47;;;10.23;;
359;SDS011;168;48.872;9.226;2023-02-28T15:34:05;13.50;;;12.10;;
359;SDS011;168;48.872;9.226;2023-02-28T15:36:55;12.23;;;11.03;;
359;SDS011;168;48.872;9.226;2023-02-28T15:39:28;11.47;;;10.40;;
359;SDS011;168;48.872;9.226;2023-02-28T15:42:19;12.37;;;11.10;;
359;SDS011;168;48.872;9.226;2023-02-28T15:44:50;11.33;;;10.30;;
359;SDS011;168;48.872;9.226;2023-02-28T15:47:18;11.30;;;10.30;;
359;SDS011;168;48.872;9.226;2023-02-28T15:49:57;12.40;;;11.03;;
359;SDS011;168;48.872;9.226;2023-02-28T15:55:55;11.10;;;10.00;;
359;SDS011;168;48.872;9.226;2023-02-28T16:05:23;10.23;;;9.30;;
359;SDS011;168;48.872;9.226;2023-02-28T16:08:00;14.83;;;12.17;;
359;SDS011;168;48.872;9.226;2023-02-28T16:14:14;12.00;;;10.90;;
359;SDS011;168;48.872;9.226;2023-02-28T16:17:16;12.00;;;10.70;;
359;SDS011;168;48.872;9.226;2023-02-28T16:19:49;11.17;;;10.07;;
359;SDS011;168;48.872;9.226;2023-02-28T16:22:19;12.27;;;11.07;;
359;SDS011;168;48.872;9.226;2023-02-28T16:24:46;11.70;;;10.67;;
359;SDS011;168;48.872;9.226;2023-02-28T16:27:24;11.57;;;10.27;;
359;SDS011;168;48.872;9.226;2023-02-28T16:30:14;13.67;;;11.17;;
359;SDS011;168;48.872;9.226;2023-02-28T16:33:07;11.13;;;10.03;;
359;SDS011;168;48.872;9.226;2023-02-28T16:35:45;11.40;;;10.30;;
359;SDS011;168;48.872;9.226;2023-02-28T16:38:26;12.10;;;10.90;;
359;SDS011;168;48.872;9.226;2023-02-28T16:41:11;12.30;;;11.20;;
359;SDS011;168;48.872;9.226;2023-02-28T16:44:04;12.97;;;11.53;;
359;SDS011;168;48.872;9.226;2023-02-28T16:49:52;12.83;;;11.57;;
359;SDS011;168;48.872;9.226;2023-02-28T16:52:32;13.50;;;12.10;;
359;SDS011;168;48.872;9.226;2023-02-28T16:55:00;13.37;;;12.07;;
359;SDS011;168;48.872;9.226;2023-02-28T16:57:28;12.73;;;10.70;;
359;SDS011;168;48.872;9.226;2023-02-28T16:59:55;12.97;;;11.57;;